createdAt,value
2023-04-20T00:01:03.480Z,100398.35
2023-04-20T00:03:32.311Z,100396.69
2023-04-20T00:05:56.015Z,100391.88
2023-04-20T00:08:19.853Z,100390.05
2023-04-20T00:10:44.432Z,100386.98
2023-04-20T00:13:11.348Z,100383.91
2023-04-20T00:15:44.487Z,100382.58
2023-04-20T00:18:27.300Z,100385.20
2023-04-20T00:21:11.042Z,100380.22
2023-04-20T00:23:38.190Z,100381.34
2023-04-20T00:26:21.959Z,100382.90
2023-04-20T00:28:56.790Z,100380.89
2023-04-20T00:31:23.248Z,100381.65
2023-04-20T00:34:07.349Z,100383.02
2023-04-20T00:36:51.302Z,100389.11
2023-04-20T00:39:16.923Z,100385.30
2023-04-20T00:42:05.869Z,100382.35
2023-04-20T00:44:33.319Z,100384.89
2023-04-20T00:47:17.273Z,100382.09
2023-04-20T00:49:41.128Z,100385.89
2023-04-20T00:52:05.914Z,100387.42
2023-04-20T00:54:32.777Z,100385.50
2023-04-20T00:57:23.299Z,100383.42
2023-04-20T00:59:56.928Z,100387.06
2023-04-20T01:02:41.160Z,100386.53
2023-04-20T01:05:08.717Z,100388.98
2023-04-20T01:07:32.303Z,100390.19
2023-04-20T01:09:58.430Z,100390.35
2023-04-20T01:12:21.803Z,100388.78
2023-04-20T01:14:48.391Z,100392.70
2023-04-20T01:17:14.403Z,100387.48
2023-04-20T01:19:44.090Z,100386.56
2023-04-20T01:22:07.672Z,100386.51
2023-04-20T01:24:34.141Z,100385.09
2023-04-20T01:26:57.890Z,100385.77
2023-04-20T01:29:21.530Z,100384.01
2023-04-20T01:31:47.694Z,100381.70
2023-04-20T01:34:11.300Z,100380.16
2023-04-20T01:36:55.887Z,100384.10
2023-04-20T01:39:22.064Z,100382.19
2023-04-20T01:41:47.888Z,100381.64
2023-04-20T01:44:14.580Z,100381.58
2023-04-20T01:46:39.146Z,100380.38
2023-04-20T01:49:16.221Z,100378.95
2023-04-20T01:51:40.069Z,100383.48
2023-04-20T01:54:03.839Z,100382.09
2023-04-20T01:56:28.091Z,100378.31
2023-04-20T01:58:54.722Z,100377.64
2023-04-20T02:01:29.559Z,100380.23
2023-04-20T02:03:53.455Z,100381.10
2023-04-20T02:06:29.358Z,100379.88
2023-04-20T02:08:53.062Z,100380.41
2023-04-20T02:11:23.777Z,100378.67
2023-04-20T02:14:07.924Z,100381.40
2023-04-20T02:16:36.020Z,100383.32
2023-04-20T02:19:02.858Z,100385.20
2023-04-20T02:21:27.476Z,100383.10
2023-04-20T02:23:51.111Z,100384.13
2023-04-20T02:26:16.606Z,100385.84
2023-04-20T02:28:49.518Z,100386.17
2023-04-20T02:31:13.433Z,100387.91
2023-04-20T02:33:41.557Z,100387.90
2023-04-20T02:36:06.501Z,100388.98
2023-04-20T02:38:29.862Z,100393.20
2023-04-20T02:40:53.338Z,100391.43
2023-04-20T02:43:17.213Z,100388.83
2023-04-20T02:45:40.814Z,100385.19
2023-04-20T02:48:05.764Z,100387.44
2023-04-20T02:50:49.794Z,100388.47
2023-04-20T02:53:16.726Z,100385.88
2023-04-20T02:55:49.858Z,100387.82
2023-04-20T02:58:26.059Z,100386.79
2023-04-20T03:01:21.776Z,100388.70
2023-04-20T03:03:47.378Z,100386.48
2023-04-20T03:06:11.463Z,100387.02
2023-04-20T03:08:48.652Z,100392.42
2023-04-20T03:11:41.335Z,100392.61
2023-04-20T03:14:10.094Z,100391.92
2023-04-20T03:16:33.899Z,100393.35
2023-04-20T03:18:57.532Z,100392.16
2023-04-20T03:21:21.181Z,100391.67
2023-04-20T03:23:44.669Z,100391.85
2023-04-20T03:26:20.724Z,100392.48
2023-04-20T03:29:03.197Z,100390.77
2023-04-20T03:31:29.775Z,100390.77
2023-04-20T03:33:56.024Z,100390.77
2023-04-20T03:36:40.111Z,100391.41
2023-04-20T03:39:06.769Z,100387.94
2023-04-20T03:41:50.739Z,100393.99
2023-04-20T03:44:24.357Z,100392.77
2023-04-20T03:46:50.413Z,100399.21
2023-04-20T03:49:34.999Z,100402.34
2023-04-20T03:52:18.883Z,100403.09
2023-04-20T03:54:52.036Z,100401.58
2023-04-20T03:57:16.660Z,100405.80
2023-04-20T04:00:00.997Z,100403.09
2023-04-20T04:02:28.429Z,100408.16
2023-04-20T04:04:55.576Z,100410.27
2023-04-20T04:07:23.777Z,100412.38
2023-04-20T04:09:50.518Z,100417.08
2023-04-20T04:12:31.250Z,100417.91
2023-04-20T04:15:08.439Z,100419.98
2023-04-20T04:17:55.042Z,100418.63
2023-04-20T04:20:22.245Z,100421.77
2023-04-20T04:22:46.398Z,100427.51
2023-04-20T04:25:24.498Z,100426.67
2023-04-20T04:27:48.179Z,100432.39
2023-04-20T04:30:14.215Z,100426.62
2023-04-20T04:32:41.282Z,100430.77
2023-04-20T04:35:06.286Z,100426.42
2023-04-20T04:37:30.335Z,100428.98
2023-04-20T04:40:14.690Z,100432.13
2023-04-20T04:42:38.820Z,100434.78
2023-04-20T04:45:04.039Z,100436.61
2023-04-20T04:47:29.935Z,100437.72
2023-04-20T04:49:55.833Z,100440.83
2023-04-20T04:52:19.511Z,100442.40
2023-04-20T04:54:43.079Z,100442.07
2023-04-20T04:57:06.616Z,100443.11
2023-04-20T04:59:30.081Z,100446.06
2023-04-20T05:01:56.253Z,100446.23
2023-04-20T05:04:20.052Z,100453.73
2023-04-20T05:07:04.081Z,100447.54
2023-04-20T05:09:32.659Z,100455.48
2023-04-20T05:11:56.891Z,100457.38
2023-04-20T05:14:20.550Z,100456.77
2023-04-20T05:16:46.528Z,100457.75
2023-04-20T05:19:12.226Z,100455.22
2023-04-20T05:21:37.536Z,100462.10
2023-04-20T05:24:03.844Z,100458.91
2023-04-20T05:26:27.460Z,100457.83
2023-04-20T05:28:53.707Z,100461.30
2023-04-20T05:31:26.065Z,100465.75
2023-04-20T05:33:49.873Z,100466.90
2023-04-20T05:36:22.244Z,100466.34
2023-04-20T05:38:59.142Z,100470.23
2023-04-20T05:41:26.830Z,100466.83
2023-04-20T05:43:50.456Z,100470.30
2023-04-20T05:46:15.984Z,100471.19
2023-04-20T05:48:39.546Z,100469.83
2023-04-20T05:51:03.055Z,100465.45
2023-04-20T05:53:26.660Z,100461.91
2023-04-20T05:55:50.184Z,100459.77
2023-04-20T05:58:13.628Z,100463.05
2023-04-20T06:00:37.165Z,100464.94
2023-04-20T06:03:01.125Z,100464.48
2023-04-20T06:05:24.817Z,100466.63
2023-04-20T06:07:48.691Z,100469.73
2023-04-20T06:10:12.938Z,100468.88
2023-04-20T06:12:36.443Z,100470.04
2023-04-20T06:14:59.844Z,100462.34
2023-04-20T06:17:23.526Z,100465.47
2023-04-20T06:19:47.222Z,100464.56
2023-04-20T06:22:16.180Z,100466.48
2023-04-20T06:24:41.654Z,100459.91
2023-04-20T06:27:05.763Z,100458.27
2023-04-20T06:29:29.206Z,100455.79
2023-04-20T06:31:52.722Z,100448.88
2023-04-20T06:34:16.110Z,100447.09
2023-04-20T06:36:43.180Z,100447.31
2023-04-20T06:39:07.090Z,100440.52
2023-04-20T06:41:30.497Z,100438.16
2023-04-20T06:44:02.156Z,100439.70
2023-04-20T06:46:25.763Z,100437.21
2023-04-20T06:48:49.306Z,100434.34
2023-04-20T06:51:13.792Z,100437.39
2023-04-20T06:53:37.608Z,100440.76
2023-04-20T06:56:01.417Z,100445.11
2023-04-20T06:58:25.030Z,100443.17
2023-04-20T07:00:48.975Z,100442.86
2023-04-20T07:03:12.556Z,100448.48
2023-04-20T07:05:37.500Z,100447.44
2023-04-20T07:08:01.814Z,100450.52
2023-04-20T07:10:25.632Z,100451.69
2023-04-20T07:12:48.960Z,100451.41
2023-04-20T07:15:13.262Z,100454.58
2023-04-20T07:17:36.642Z,100451.08
2023-04-20T07:20:06.644Z,100452.44
2023-04-20T07:22:30.297Z,100452.89
2023-04-20T07:24:53.605Z,100456.46
2023-04-20T07:27:17.524Z,100456.88
2023-04-20T07:29:40.991Z,100456.91
2023-04-20T07:32:05.091Z,100459.64
2023-04-20T07:34:28.602Z,100456.45
2023-04-20T07:36:52.245Z,100457.15
2023-04-20T07:39:16.112Z,100458.45
2023-04-20T07:41:39.841Z,100460.11
2023-04-20T07:44:05.673Z,100458.70
2023-04-20T07:46:29.073Z,100457.61
2023-04-20T07:48:52.547Z,100454.34
2023-04-20T07:51:16.156Z,100453.65
2023-04-20T07:53:39.616Z,100451.33
2023-04-20T07:56:03.099Z,100452.73
2023-04-20T07:58:26.612Z,100451.38
2023-04-20T08:00:49.941Z,100453.52
2023-04-20T08:03:13.514Z,100452.06
2023-04-20T08:05:40.243Z,100455.99
2023-04-20T08:08:03.842Z,100454.80
2023-04-20T08:10:27.181Z,100455.58
2023-04-20T08:12:52.928Z,100454.15
2023-04-20T08:15:16.490Z,100449.95
2023-04-20T08:17:39.996Z,100451.09
2023-04-20T08:20:05.385Z,100452.77
2023-04-20T08:22:29.645Z,100450.27
2023-04-20T08:24:53.053Z,100454.04
2023-04-20T08:27:16.677Z,100448.86
2023-04-20T08:29:40.514Z,100452.59
2023-04-20T08:32:08.284Z,100455.00
2023-04-20T08:34:32.048Z,100454.10
2023-04-20T08:36:55.455Z,100455.04
2023-04-20T08:39:23.446Z,100456.98
2023-04-20T08:41:47.696Z,100454.69
2023-04-20T08:44:11.266Z,100458.92
2023-04-20T08:46:35.471Z,100455.61
2023-04-20T08:49:01.526Z,100453.76
2023-04-20T08:51:25.072Z,100459.98
2023-04-20T08:53:48.410Z,100466.98
2023-04-20T08:56:12.015Z,100461.59
2023-04-20T08:58:37.863Z,100466.12
2023-04-20T09:01:01.650Z,100460.91
2023-04-20T09:03:33.885Z,100463.11
2023-04-20T09:05:57.454Z,100464.08
2023-04-20T09:08:20.906Z,100462.02
2023-04-20T09:10:45.139Z,100457.91
2023-04-20T09:13:08.900Z,100457.42
2023-04-20T09:15:32.762Z,100458.05
2023-04-20T09:17:57.314Z,100460.13
2023-04-20T09:20:29.329Z,100455.52
2023-04-20T09:22:53.765Z,100456.55
2023-04-20T09:25:18.394Z,100462.61
2023-04-20T09:27:42.022Z,100463.89
2023-04-20T09:30:08.678Z,100465.39
2023-04-20T09:32:33.080Z,100462.38
2023-04-20T09:34:56.777Z,100468.38
2023-04-20T09:37:20.234Z,100467.55
2023-04-20T09:39:45.142Z,100469.66
2023-04-20T09:42:12.987Z,100473.91
2023-04-20T09:44:38.708Z,100473.31
2023-04-20T09:47:04.123Z,100463.92
2023-04-20T09:49:27.799Z,100465.77
2023-04-20T09:51:51.897Z,100466.41
2023-04-20T09:54:16.559Z,100477.63
2023-04-20T09:56:41.091Z,100472.39
2023-04-20T09:59:05.016Z,100471.41
2023-04-20T10:01:33.012Z,100466.91
2023-04-20T10:03:58.684Z,100467.50
2023-04-20T10:06:24.151Z,100458.90
2023-04-20T10:08:49.863Z,100460.04
2023-04-20T10:11:25.280Z,100459.50
2023-04-20T10:13:49.600Z,100463.31
2023-04-20T10:16:19.569Z,100465.35
2023-04-20T10:18:43.169Z,100461.95
2023-04-20T10:21:08.899Z,100464.84
2023-04-20T10:23:32.639Z,100460.06
2023-04-20T10:25:57.561Z,100466.53
2023-04-20T10:28:21.302Z,100461.02
2023-04-20T10:30:52.972Z,100461.72
2023-04-20T10:33:17.551Z,100462.55
2023-04-20T10:35:47.022Z,100458.20
2023-04-20T10:38:11.607Z,100462.34
2023-04-20T10:40:35.721Z,100455.55
2023-04-20T10:43:01.444Z,100445.48
2023-04-20T10:45:35.848Z,100442.55
2023-04-20T10:48:06.017Z,100447.96
2023-04-20T10:50:29.502Z,100454.45
2023-04-20T10:52:53.146Z,100456.14
2023-04-20T10:55:21.835Z,100454.77
2023-04-20T10:57:46.184Z,100456.80
2023-04-20T11:00:18.426Z,100453.12
2023-04-20T11:02:51.006Z,100451.20
2023-04-20T11:05:15.776Z,100449.00
2023-04-20T11:07:54.570Z,100445.93
2023-04-20T11:10:18.712Z,100442.11
2023-04-20T11:12:42.155Z,100442.71
2023-04-20T11:15:09.353Z,100438.42
2023-04-20T11:17:33.999Z,100435.62
2023-04-20T11:20:10.282Z,100435.80
2023-04-20T11:22:34.127Z,100433.38
2023-04-20T11:25:05.226Z,100437.98
2023-04-20T11:27:28.676Z,100445.27
2023-04-20T11:29:59.214Z,100443.57
2023-04-20T11:32:23.211Z,100447.01
2023-04-20T11:34:50.265Z,100436.27
2023-04-20T11:37:17.281Z,100438.57
2023-04-20T11:39:41.263Z,100438.94
2023-04-20T11:42:06.019Z,100436.45
2023-04-20T11:44:29.988Z,100438.16
2023-04-20T11:46:56.570Z,100440.66
2023-04-20T11:49:21.302Z,100442.01
2023-04-20T11:51:45.788Z,100441.13
2023-04-20T11:54:09.446Z,100441.60
2023-04-20T11:56:33.037Z,100438.77
2023-04-20T11:58:57.426Z,100432.23
2023-04-20T12:01:20.934Z,100430.59
2023-04-20T12:03:47.101Z,100433.45
2023-04-20T12:06:12.218Z,100431.73
2023-04-20T12:08:36.517Z,100434.15
2023-04-20T12:11:03.032Z,100422.16
2023-04-20T12:13:26.828Z,100422.69
2023-04-20T12:15:50.373Z,100420.64
2023-04-20T12:18:14.032Z,100419.78
2023-04-20T12:20:37.696Z,100425.35
2023-04-20T12:23:01.853Z,100420.31
2023-04-20T12:25:25.258Z,100417.27
2023-04-20T12:27:50.006Z,100416.60
2023-04-20T12:30:17.467Z,100417.08
2023-04-20T12:32:41.034Z,100418.25
2023-04-20T12:35:05.612Z,100414.71
2023-04-20T12:37:29.064Z,100414.03
2023-04-20T12:39:52.737Z,100412.11
2023-04-20T12:42:16.430Z,100404.21
2023-04-20T12:44:40.265Z,100402.92
2023-04-20T12:47:03.771Z,100399.35
2023-04-20T12:49:27.825Z,100400.17
2023-04-20T12:51:51.350Z,100394.84
2023-04-20T12:54:14.782Z,100396.20
2023-04-20T12:56:38.409Z,100391.10
2023-04-20T12:59:02.338Z,100391.23
2023-04-20T13:01:26.185Z,100390.81
2023-04-20T13:03:51.747Z,100396.09
2023-04-20T13:06:18.252Z,100390.71
2023-04-20T13:08:41.884Z,100389.58
2023-04-20T13:11:06.300Z,100390.19
2023-04-20T13:13:29.730Z,100385.89
2023-04-20T13:15:54.668Z,100382.77
2023-04-20T13:18:19.543Z,100382.11
2023-04-20T13:20:42.901Z,100380.55
2023-04-20T13:23:06.443Z,100380.08
2023-04-20T13:25:32.849Z,100375.54
2023-04-20T13:27:56.607Z,100378.15
2023-04-20T13:30:21.838Z,100378.42
2023-04-20T13:32:46.649Z,100379.48
2023-04-20T13:35:11.772Z,100384.72
2023-04-20T13:37:36.240Z,100383.00
2023-04-20T13:40:00.977Z,100379.80
2023-04-20T13:42:24.838Z,100383.37
2023-04-20T13:44:48.368Z,100384.08
2023-04-20T13:47:11.960Z,100384.70
2023-04-20T13:49:35.430Z,100384.50
2023-04-20T13:51:58.894Z,100384.05
2023-04-20T13:54:22.836Z,100376.30
2023-04-20T13:56:46.380Z,100379.42
2023-04-20T13:59:09.795Z,100374.23
2023-04-20T14:01:33.612Z,100368.95
2023-04-20T14:03:57.219Z,100369.05
2023-04-20T14:06:21.408Z,100364.73
2023-04-20T14:08:45.400Z,100369.29
2023-04-20T14:11:08.926Z,100369.23
2023-04-20T14:13:32.484Z,100371.42
2023-04-20T14:15:56.840Z,100374.21
2023-04-20T14:18:20.349Z,100382.65
2023-04-20T14:20:43.805Z,100379.00
2023-04-20T14:23:09.428Z,100379.36
2023-04-20T14:25:33.267Z,100376.61
2023-04-20T14:27:56.669Z,100374.66
2023-04-20T14:30:20.450Z,100376.34
2023-04-20T14:32:54.048Z,100377.73
2023-04-20T14:35:17.758Z,100375.13
2023-04-20T14:37:42.850Z,100373.64
2023-04-20T14:40:08.596Z,100371.05
2023-04-20T14:42:33.863Z,100367.55
2023-04-20T14:44:57.529Z,100363.02
2023-04-20T14:47:21.991Z,100361.09
2023-04-20T14:49:45.424Z,100368.45
2023-04-20T14:52:09.039Z,100364.74
2023-04-20T14:54:32.454Z,100364.64
2023-04-20T14:56:58.710Z,100366.46
2023-04-20T14:59:23.974Z,100364.84
2023-04-20T15:02:01.272Z,100368.42
2023-04-20T15:04:27.082Z,100368.15
2023-04-20T15:06:50.856Z,100369.20
2023-04-20T15:09:14.772Z,100371.39
2023-04-20T15:11:38.277Z,100368.77
2023-04-20T15:14:02.117Z,100369.86
2023-04-20T15:16:25.787Z,100369.24
2023-04-20T15:18:52.199Z,100365.93
2023-04-20T15:21:15.638Z,100364.83
2023-04-20T15:23:39.023Z,100361.28
2023-04-20T15:26:02.999Z,100360.41
2023-04-20T15:28:26.489Z,100365.18
2023-04-20T15:30:49.901Z,100366.23
2023-04-20T15:33:13.557Z,100368.70
2023-04-20T15:35:36.966Z,100368.52
2023-04-20T15:38:00.732Z,100369.44
2023-04-20T15:40:26.559Z,100364.11
2023-04-20T15:42:55.023Z,100363.03
2023-04-20T15:45:19.464Z,100367.08
2023-04-20T15:47:43.195Z,100364.67
2023-04-20T15:50:08.474Z,100363.59
2023-04-20T15:52:32.266Z,100361.88
2023-04-20T15:54:56.103Z,100364.14
2023-04-20T15:57:19.504Z,100358.78
2023-04-20T15:59:43.098Z,100358.80
2023-04-20T16:02:16.081Z,100358.46
2023-04-20T16:04:39.985Z,100355.04
2023-04-20T16:07:03.780Z,100355.82
2023-04-20T16:09:27.471Z,100357.34
2023-04-20T16:11:50.924Z,100359.09
2023-04-20T16:14:14.231Z,100354.52
2023-04-20T16:16:37.995Z,100352.95
2023-04-20T16:19:01.419Z,100353.62
2023-04-20T16:21:25.204Z,100356.59
2023-04-20T16:23:53.037Z,100363.64
2023-04-20T16:26:16.928Z,100365.04
2023-04-20T16:28:40.932Z,100366.59
2023-04-20T16:31:05.216Z,100366.20
2023-04-20T16:33:31.456Z,100368.48
2023-04-20T16:35:54.908Z,100368.99
2023-04-20T16:38:26.130Z,100375.81
2023-04-20T16:40:50.264Z,100378.86
2023-04-20T16:43:13.808Z,100378.41
2023-04-20T16:45:45.121Z,100381.58
2023-04-20T16:48:29.089Z,100381.98
2023-04-20T16:50:53.249Z,100387.63
2023-04-20T16:53:16.922Z,100390.88
2023-04-20T16:55:40.394Z,100392.56
2023-04-20T16:58:06.494Z,100397.07
2023-04-20T17:00:31.374Z,100395.45
2023-04-20T17:03:00.761Z,100394.26
2023-04-20T17:05:25.287Z,100399.04
2023-04-20T17:07:48.789Z,100401.58
2023-04-20T17:10:12.712Z,100396.75
2023-04-20T17:12:36.394Z,100404.75
2023-04-20T17:15:00.373Z,100405.64
2023-04-20T17:17:25.418Z,100406.17
2023-04-20T17:19:49.466Z,100405.38
2023-04-20T17:22:16.099Z,100404.23
2023-04-20T17:24:48.260Z,100408.10
2023-04-20T17:27:22.456Z,100412.84
2023-04-20T17:29:47.069Z,100414.80
2023-04-20T17:32:12.929Z,100415.61
2023-04-20T17:34:37.012Z,100418.90
2023-04-20T17:37:00.906Z,100422.70
2023-04-20T17:39:25.290Z,100426.46
2023-04-20T17:41:48.873Z,100427.70
2023-04-20T17:44:12.672Z,100427.07
2023-04-20T17:46:36.214Z,100425.15
2023-04-20T17:49:00.274Z,100428.73
2023-04-20T17:51:23.872Z,100431.45
2023-04-20T17:53:47.312Z,100432.29
2023-04-20T17:56:11.256Z,100432.95
2023-04-20T17:58:38.055Z,100431.11
2023-04-20T18:01:10.051Z,100434.44
2023-04-20T18:03:34.037Z,100434.64
2023-04-20T18:05:57.501Z,100435.48
2023-04-20T18:08:23.603Z,100436.56
2023-04-20T18:10:56.776Z,100440.70
2023-04-20T18:13:40.823Z,100440.13
2023-04-20T18:16:23.474Z,100438.76
2023-04-20T18:18:47.212Z,100445.77
2023-04-20T18:21:13.480Z,100439.49
2023-04-20T18:23:48.923Z,100442.73
2023-04-20T18:26:17.209Z,100443.16
2023-04-20T18:28:43.588Z,100447.39
2023-04-20T18:31:07.311Z,100449.23
2023-04-20T18:33:30.954Z,100449.66
2023-04-20T18:35:57.466Z,100450.02
2023-04-20T18:38:21.150Z,100450.73
2023-04-20T18:40:45.700Z,100452.36
2023-04-20T18:43:09.209Z,100452.05
2023-04-20T18:45:35.881Z,100455.05
2023-04-20T18:48:19.438Z,100453.69
2023-04-20T18:50:43.772Z,100457.38
2023-04-20T18:53:08.136Z,100460.53
2023-04-20T18:55:39.830Z,100462.71
2023-04-20T18:58:12.570Z,100462.23
2023-04-20T19:00:39.224Z,100466.84
2023-04-20T19:03:26.809Z,100464.45
2023-04-20T19:06:10.986Z,100470.52
2023-04-20T19:08:55.393Z,100469.54
2023-04-20T19:11:39.490Z,100471.02
2023-04-20T19:14:23.767Z,100467.62
2023-04-20T19:17:08.219Z,100471.29
2023-04-20T19:19:41.921Z,100472.48
2023-04-20T19:22:05.516Z,100473.38
2023-04-20T19:24:29.423Z,100474.92
2023-04-20T19:26:53.620Z,100476.29
2023-04-20T19:29:36.427Z,100473.11
2023-04-20T19:32:00.229Z,100477.80
2023-04-20T19:34:44.150Z,100477.78
2023-04-20T19:37:07.904Z,100478.45
2023-04-20T19:39:38.777Z,100476.36
2023-04-20T19:42:02.310Z,100476.51
2023-04-20T19:44:28.653Z,100476.73
2023-04-20T19:47:12.617Z,100478.85
2023-04-20T19:49:36.862Z,100478.39
2023-04-20T19:52:00.542Z,100480.77
2023-04-20T19:54:24.170Z,100481.13
2023-04-20T19:56:58.641Z,100480.59
2023-04-20T19:59:42.697Z,100488.25
2023-04-20T20:02:09.444Z,100487.70
2023-04-20T20:04:36.766Z,100487.48
2023-04-20T20:07:21.137Z,100491.51
2023-04-20T20:09:47.887Z,100488.52
2023-04-20T20:12:32.228Z,100488.77
2023-04-20T20:15:05.752Z,100489.09
2023-04-20T20:17:54.959Z,100491.34
2023-04-20T20:20:39.560Z,100487.00
2023-04-20T20:23:04.194Z,100486.29
2023-04-20T20:25:30.679Z,100488.91
2023-04-20T20:27:54.159Z,100486.63
2023-04-20T20:30:18.130Z,100492.92
2023-04-20T20:32:42.138Z,100491.20
2023-04-20T20:35:10.877Z,100491.86
2023-04-20T20:37:35.540Z,100490.46
2023-04-20T20:39:59.479Z,100491.36
2023-04-20T20:42:22.879Z,100492.38
2023-04-20T20:45:11.801Z,100492.86
2023-04-20T20:47:55.797Z,100495.83
2023-04-20T20:50:32.187Z,100492.36
2023-04-20T20:53:16.956Z,100493.23
2023-04-20T20:55:43.713Z,100493.20
2023-04-20T20:58:17.322Z,100494.54
2023-04-20T21:01:01.915Z,100494.84
2023-04-20T21:03:46.520Z,100496.04
2023-04-20T21:06:32.160Z,100495.46
2023-04-20T21:09:17.089Z,100495.94
2023-04-20T21:11:56.225Z,100494.66
2023-04-20T21:14:29.083Z,100498.64
2023-04-20T21:17:13.490Z,100497.22
2023-04-20T21:19:57.500Z,100495.30
2023-04-20T21:22:42.178Z,100494.52
2023-04-20T21:25:07.804Z,100497.39
2023-04-20T21:27:52.165Z,100497.02
2023-04-20T21:30:35.958Z,100499.59
2023-04-20T21:33:08.729Z,100494.95
2023-04-20T21:35:52.576Z,100495.77
2023-04-20T21:38:36.927Z,100492.05
2023-04-20T21:41:00.503Z,100496.09
2023-04-20T21:43:24.281Z,100496.86
2023-04-20T21:45:51.039Z,100493.46
2023-04-20T21:48:15.060Z,100498.26
2023-04-20T21:50:38.852Z,100492.56
2023-04-20T21:53:02.974Z,100489.71
2023-04-20T21:55:26.502Z,100490.66
2023-04-20T21:58:10.461Z,100492.53
2023-04-20T22:00:54.395Z,100491.23
2023-04-20T22:03:38.893Z,100487.34
2023-04-20T22:06:23.064Z,100489.90
2023-04-20T22:09:07.453Z,100491.41
2023-04-20T22:11:35.912Z,100496.40
2023-04-20T22:14:10.280Z,100496.33
2023-04-20T22:16:37.186Z,100498.38
2023-04-20T22:19:21.893Z,100496.92
2023-04-20T22:22:05.827Z,100498.25
2023-04-20T22:24:39.952Z,100496.29
2023-04-20T22:27:24.054Z,100498.30
2023-04-20T22:29:57.057Z,100497.33
2023-04-20T22:32:24.049Z,100500.55
2023-04-20T22:35:09.621Z,100500.50
2023-04-20T22:37:33.326Z,100502.52
2023-04-20T22:40:17.354Z,100503.02
2023-04-20T22:43:01.117Z,100505.58
2023-04-20T22:45:45.452Z,100504.56
2023-04-20T22:48:29.652Z,100510.81
2023-04-20T22:51:16.748Z,100512.51
2023-04-20T22:54:01.869Z,100509.84
2023-04-20T22:56:45.879Z,100506.66
2023-04-20T22:59:29.618Z,100507.49
2023-04-20T23:02:14.280Z,100509.02
2023-04-20T23:04:56.996Z,100508.60
2023-04-20T23:07:41.224Z,100503.19
2023-04-20T23:10:15.997Z,100504.73
2023-04-20T23:12:59.939Z,100506.73
2023-04-20T23:15:43.896Z,100506.83
2023-04-20T23:18:18.608Z,100508.99
2023-04-20T23:21:02.309Z,100509.15
2023-04-20T23:23:40.421Z,100508.20
2023-04-20T23:26:24.914Z,100512.14
2023-04-20T23:29:08.972Z,100506.30
2023-04-20T23:31:52.744Z,100506.19
2023-04-20T23:34:37.327Z,100506.44
2023-04-20T23:37:21.131Z,100504.66
2023-04-20T23:39:55.479Z,100504.23
2023-04-20T23:42:30.415Z,100500.70
2023-04-20T23:45:14.470Z,100500.63
2023-04-20T23:47:40.591Z,100496.07
2023-04-20T23:50:13.693Z,100499.64
2023-04-20T23:52:57.667Z,100497.84
2023-04-20T23:55:41.564Z,100498.30
2023-04-20T23:58:11.273Z,100498.35
